createdAt,value
2022-12-11T00:01:23.313Z,19.70
2022-12-11T00:03:53.081Z,19.33
2022-12-11T00:06:24.073Z,20.30
2022-12-11T00:08:54.275Z,20.10
2022-12-11T00:11:24.324Z,20.87
2022-12-11T00:13:54.850Z,20.43
2022-12-11T00:16:27.149Z,20.97
2022-12-11T00:18:57.372Z,19.53
2022-12-11T00:21:27.054Z,20.00
2022-12-11T00:23:56.287Z,20.40
2022-12-11T00:26:25.656Z,19.83
2022-12-11T00:28:57.767Z,20.90
2022-12-11T00:31:26.921Z,20.47
2022-12-11T00:33:56.742Z,20.03
2022-12-11T00:36:27.191Z,20.77
2022-12-11T00:38:56.487Z,20.40
2022-12-11T00:41:26.369Z,20.70
2022-12-11T00:43:56.761Z,21.23
2022-12-11T00:46:26.062Z,20.60
2022-12-11T00:48:55.362Z,20.03
2022-12-11T00:51:25.844Z,21.43
2022-12-11T00:53:55.203Z,20.10
2022-12-11T00:56:25.237Z,20.20
2022-12-11T00:58:54.198Z,20.67
2022-12-11T01:01:26.358Z,20.63
2022-12-11T01:03:55.433Z,20.63
2022-12-11T01:06:26.639Z,20.27
2022-12-11T01:09:10.291Z,18.97
2022-12-11T01:11:39.382Z,20.57
2022-12-11T01:14:10.045Z,21.70
2022-12-11T01:16:40.478Z,20.77
2022-12-11T01:19:09.534Z,21.60
2022-12-11T01:21:38.311Z,20.80
2022-12-11T01:24:07.557Z,20.37
2022-12-11T01:26:36.594Z,20.77
2022-12-11T01:29:05.413Z,21.13
2022-12-11T01:31:34.421Z,20.77
2022-12-11T01:34:04.711Z,21.00
2022-12-11T01:36:33.688Z,19.57
2022-12-11T01:39:02.483Z,20.40
2022-12-11T01:41:31.614Z,20.40
2022-12-11T01:44:03.482Z,21.50
2022-12-11T01:46:34.463Z,20.50
2022-12-11T01:49:08.465Z,20.20
2022-12-11T01:51:41.907Z,21.40
2022-12-11T01:54:14.680Z,21.20
2022-12-11T01:56:46.146Z,21.10
2022-12-11T01:59:18.873Z,20.37
2022-12-11T02:01:51.371Z,21.03
2022-12-11T02:04:22.700Z,21.70
2022-12-11T02:06:53.297Z,21.33
2022-12-11T02:09:26.958Z,20.90
2022-12-11T02:12:02.734Z,20.93
2022-12-11T02:14:38.079Z,20.93
2022-12-11T02:17:13.911Z,21.10
2022-12-11T02:19:56.248Z,21.07
2022-12-11T02:22:36.862Z,21.53
2022-12-11T02:25:15.019Z,21.57
2022-12-11T02:27:48.256Z,22.23
2022-12-11T02:30:19.166Z,22.07
2022-12-11T02:32:54.477Z,22.90
2022-12-11T02:35:27.226Z,22.73
2022-12-11T02:38:00.578Z,22.10
2022-12-11T02:40:32.807Z,23.27
2022-12-11T02:43:05.618Z,22.73
2022-12-11T02:45:36.463Z,23.33
2022-12-11T02:48:07.954Z,23.20
2022-12-11T02:50:43.511Z,22.97
2022-12-11T02:53:16.914Z,23.33
2022-12-11T02:55:48.715Z,22.93
2022-12-11T02:58:20.975Z,23.33
2022-12-11T03:00:52.162Z,24.17
2022-12-11T03:03:21.251Z,23.77
2022-12-11T03:05:50.278Z,24.13
2022-12-11T03:08:19.210Z,23.27
2022-12-11T03:10:48.047Z,22.77
2022-12-11T03:13:21.357Z,24.23
2022-12-11T03:16:05.249Z,23.57
2022-12-11T03:18:44.596Z,23.53
2022-12-11T03:21:18.626Z,22.43
2022-12-11T03:23:52.716Z,23.77
2022-12-11T03:26:24.864Z,24.27
2022-12-11T03:28:59.522Z,24.40
2022-12-11T03:31:35.756Z,24.60
2022-12-11T03:34:14.365Z,24.23
2022-12-11T03:36:44.669Z,24.13
2022-12-11T03:39:17.879Z,24.00
2022-12-11T03:41:49.191Z,21.87
2022-12-11T03:44:19.539Z,21.77
2022-12-11T03:46:51.394Z,22.23
2022-12-11T03:49:27.813Z,22.23
2022-12-11T03:51:59.139Z,21.70
2022-12-11T03:54:28.754Z,21.17
2022-12-11T03:56:59.988Z,20.77
2022-12-11T03:59:28.888Z,20.77
2022-12-11T04:01:59.756Z,19.63
2022-12-11T04:04:28.693Z,19.77
2022-12-11T04:06:57.728Z,20.53
2022-12-11T04:09:26.796Z,21.27
2022-12-11T04:11:55.817Z,21.03
2022-12-11T04:14:42.780Z,19.77
2022-12-11T04:17:33.072Z,19.67
2022-12-11T04:20:18.429Z,21.27
2022-12-11T04:23:04.630Z,20.37
2022-12-11T04:25:33.480Z,21.87
2022-12-11T04:28:02.564Z,20.83
2022-12-11T04:30:34.307Z,20.73
2022-12-11T04:33:05.310Z,21.67
2022-12-11T04:35:34.243Z,20.83
2022-12-11T04:38:03.198Z,21.00
2022-12-11T04:40:32.103Z,20.60
2022-12-11T04:43:01.007Z,21.13
2022-12-11T04:45:30.052Z,21.43
2022-12-11T04:47:59.713Z,21.30
2022-12-11T04:50:29.956Z,22.37
2022-12-11T04:52:59.083Z,21.50
2022-12-11T04:55:27.866Z,21.07
2022-12-11T04:57:57.258Z,21.00
2022-12-11T05:00:26.070Z,22.27
2022-12-11T05:02:54.917Z,22.07
2022-12-11T05:05:23.725Z,23.33
2022-12-11T05:07:54.113Z,20.90
2022-12-11T05:10:23.053Z,22.53
2022-12-11T05:12:51.881Z,22.43
2022-12-11T05:15:20.707Z,22.23
2022-12-11T05:17:49.651Z,22.90
2022-12-11T05:20:18.585Z,23.63
2022-12-11T05:22:47.437Z,22.93
2022-12-11T05:25:18.069Z,24.00
2022-12-11T05:27:47.106Z,23.47
2022-12-11T05:30:16.017Z,23.33
2022-12-11T05:32:44.935Z,22.87
2022-12-11T05:35:14.086Z,22.87
2022-12-11T05:37:42.962Z,23.77
2022-12-11T05:40:12.865Z,22.63
2022-12-11T05:42:43.141Z,22.63
2022-12-11T05:45:13.005Z,23.53
2022-12-11T05:47:42.164Z,22.50
2022-12-11T05:50:11.803Z,21.27
2022-12-11T05:52:40.608Z,22.50
2022-12-11T05:55:10.737Z,22.37
2022-12-11T05:57:39.791Z,22.23
2022-12-11T06:00:13.191Z,21.93
2022-12-11T06:02:42.138Z,21.90
2022-12-11T06:05:11.661Z,21.97
2022-12-11T06:07:40.811Z,22.00
2022-12-11T06:10:11.044Z,21.70
2022-12-11T06:12:40.871Z,20.63
2022-12-11T06:15:11.939Z,21.10
2022-12-11T06:17:41.625Z,21.93
2022-12-11T06:20:11.867Z,21.63
2022-12-11T06:22:41.401Z,21.27
2022-12-11T06:25:11.047Z,21.50
2022-12-11T06:27:40.170Z,21.60
2022-12-11T06:30:13.276Z,22.00
2022-12-11T06:32:42.286Z,22.43
2022-12-11T06:35:12.245Z,21.93
2022-12-11T06:37:41.542Z,22.00
2022-12-11T06:40:12.870Z,21.80
2022-12-11T06:42:42.034Z,20.80
2022-12-11T06:45:13.110Z,21.87
2022-12-11T06:47:42.327Z,21.80
2022-12-11T06:50:11.627Z,21.10
2022-12-11T06:52:40.548Z,22.00
2022-12-11T06:55:10.519Z,21.67
2022-12-11T06:57:39.666Z,21.13
2022-12-11T07:00:10.098Z,22.40
2022-12-11T07:02:40.759Z,21.33
2022-12-11T07:05:10.389Z,23.27
2022-12-11T07:07:39.689Z,22.47
2022-12-11T07:10:10.213Z,21.13
2022-12-11T07:12:39.476Z,22.03
2022-12-11T07:15:10.215Z,21.50
2022-12-11T07:17:40.750Z,21.90
2022-12-11T07:20:11.035Z,23.20
2022-12-11T07:22:46.039Z,22.03
2022-12-11T07:25:16.143Z,22.67
2022-12-11T07:27:45.205Z,22.20
2022-12-11T07:30:15.649Z,22.43
2022-12-11T07:32:46.125Z,23.20
2022-12-11T07:35:15.540Z,23.03
2022-12-11T07:37:45.917Z,22.90
2022-12-11T07:40:15.207Z,22.03
2022-12-11T07:42:46.298Z,22.63
2022-12-11T07:45:15.523Z,22.60
2022-12-11T07:47:45.843Z,22.00
2022-12-11T07:50:15.018Z,23.27
2022-12-11T07:52:44.595Z,22.20
2022-12-11T07:55:13.840Z,21.67
2022-12-11T07:57:43.171Z,22.20
2022-12-11T08:00:13.095Z,20.93
2022-12-11T08:02:42.724Z,21.83
2022-12-11T08:05:13.689Z,22.20
2022-12-11T08:07:43.198Z,22.03
2022-12-11T08:10:13.126Z,22.33
2022-12-11T08:12:42.427Z,21.73
2022-12-11T08:15:12.416Z,21.67
2022-12-11T08:17:42.057Z,21.10
2022-12-11T08:20:13.353Z,21.13
2022-12-11T08:22:42.856Z,21.73
2022-12-11T08:25:12.429Z,21.70
2022-12-11T08:27:42.106Z,22.53
2022-12-11T08:30:12.699Z,21.40
2022-12-11T08:32:42.247Z,21.70
2022-12-11T08:35:13.602Z,22.33
2022-12-11T08:37:42.900Z,21.77
2022-12-11T08:40:14.302Z,21.80
2022-12-11T08:42:43.455Z,21.70
2022-12-11T08:45:13.219Z,22.60
2022-12-11T08:47:43.070Z,22.30
2022-12-11T08:50:13.676Z,21.60
2022-12-11T08:52:43.004Z,22.63
2022-12-11T08:55:13.080Z,21.33
2022-12-11T08:57:43.178Z,21.57
2022-12-11T09:00:14.261Z,21.60
2022-12-11T09:02:44.014Z,19.30
2022-12-11T09:05:14.974Z,21.27
2022-12-11T09:07:44.421Z,21.03
2022-12-11T09:10:14.037Z,20.80
2022-12-11T09:12:43.298Z,20.93
2022-12-11T09:15:13.299Z,21.27
2022-12-11T09:17:42.478Z,20.97
2022-12-11T09:20:12.209Z,20.57
2022-12-11T09:22:43.347Z,21.07
2022-12-11T09:25:13.342Z,20.67
2022-12-11T09:27:42.915Z,22.10
2022-12-11T09:30:13.002Z,20.50
2022-12-11T09:32:42.005Z,21.27
2022-12-11T09:35:12.019Z,19.37
2022-12-11T09:37:42.630Z,20.27
2022-12-11T09:40:13.790Z,21.27
2022-12-11T09:42:52.265Z,20.23
2022-12-11T09:45:22.060Z,21.00
2022-12-11T09:47:53.265Z,20.17
2022-12-11T09:50:25.453Z,20.90
2022-12-11T09:53:08.773Z,20.00
2022-12-11T09:55:48.318Z,19.67
2022-12-11T09:58:24.312Z,19.13
2022-12-11T10:00:58.439Z,19.57
2022-12-11T10:03:55.526Z,19.57
2022-12-11T10:06:31.293Z,19.13
2022-12-11T10:09:14.365Z,18.83
2022-12-11T10:12:03.813Z,18.17
2022-12-11T10:14:44.493Z,19.37
2022-12-11T10:17:19.899Z,17.80
2022-12-11T10:19:50.736Z,18.30
2022-12-11T10:22:23.475Z,17.80
2022-12-11T10:25:10.672Z,18.03
2022-12-11T10:27:41.856Z,18.03
2022-12-11T10:30:18.171Z,17.60
2022-12-11T10:32:54.706Z,17.17
2022-12-11T10:35:36.050Z,17.67
2022-12-11T10:38:15.426Z,16.60
2022-12-11T10:40:47.805Z,17.77
2022-12-11T10:43:17.260Z,16.50
2022-12-11T10:45:54.074Z,16.10
2022-12-11T10:48:23.695Z,15.70
2022-12-11T10:51:00.118Z,18.47
2022-12-11T10:53:30.169Z,18.33
2022-12-11T10:56:01.442Z,19.27
2022-12-11T10:58:34.078Z,18.60
2022-12-11T11:01:09.538Z,19.40
2022-12-11T11:03:53.480Z,19.37
2022-12-11T11:06:23.820Z,19.40
2022-12-11T11:08:54.688Z,20.03
2022-12-11T11:11:28.666Z,22.33
2022-12-11T11:14:16.077Z,21.20
2022-12-11T11:16:47.964Z,22.07
2022-12-11T11:19:22.258Z,21.43
2022-12-11T11:21:54.624Z,20.40
2022-12-11T11:24:28.954Z,18.90
2022-12-11T11:27:15.203Z,19.83
2022-12-11T11:29:50.186Z,19.63
2022-12-11T11:32:25.518Z,20.00
2022-12-11T11:34:54.737Z,19.90
2022-12-11T11:37:31.353Z,22.50
2022-12-11T11:40:08.354Z,20.77
2022-12-11T11:42:46.759Z,19.90
2022-12-11T11:45:18.502Z,20.83
2022-12-11T11:47:55.646Z,21.37
2022-12-11T11:50:31.180Z,21.50
2022-12-11T11:53:04.998Z,21.30
2022-12-11T11:55:43.832Z,20.50
2022-12-11T11:58:22.818Z,19.40
2022-12-11T12:00:55.709Z,19.60
2022-12-11T12:03:26.817Z,27.43
2022-12-11T12:06:03.763Z,27.83
2022-12-11T12:08:45.624Z,23.37
2022-12-11T12:11:26.020Z,22.50
2022-12-11T12:14:22.741Z,20.03
2022-12-11T12:17:06.537Z,20.63
2022-12-11T12:19:53.070Z,20.20
2022-12-11T12:22:45.891Z,20.03
2022-12-11T12:25:22.390Z,19.93
2022-12-11T12:27:58.877Z,20.83
2022-12-11T12:30:38.831Z,20.27
2022-12-11T12:33:22.982Z,21.73
2022-12-11T12:36:03.534Z,20.10
2022-12-11T12:38:45.469Z,21.23
2022-12-11T12:41:20.514Z,21.20
2022-12-11T12:44:08.291Z,21.37
2022-12-11T12:46:50.451Z,21.17
2022-12-11T12:49:39.177Z,20.80
2022-12-11T12:52:15.321Z,19.90
2022-12-11T12:55:08.929Z,20.03
2022-12-11T12:57:39.637Z,19.93
2022-12-11T13:00:13.121Z,20.23
2022-12-11T13:02:51.781Z,20.00
2022-12-11T13:05:23.532Z,19.23
2022-12-11T13:07:56.797Z,19.63
2022-12-11T13:10:30.863Z,20.00
2022-12-11T13:13:01.472Z,20.00
2022-12-11T13:15:40.958Z,19.63
2022-12-11T13:18:35.378Z,20.10
2022-12-11T13:21:26.011Z,19.93
2022-12-11T13:23:55.595Z,19.20
2022-12-11T13:26:34.369Z,19.97
2022-12-11T13:29:03.717Z,19.20
2022-12-11T13:31:38.289Z,18.73
2022-12-11T13:34:18.791Z,17.20
2022-12-11T13:36:49.984Z,17.60
2022-12-11T13:39:23.455Z,16.90
2022-12-11T13:41:55.935Z,18.23
2022-12-11T13:44:28.771Z,19.07
2022-12-11T13:47:01.281Z,18.10
2022-12-11T13:49:36.781Z,18.07
2022-12-11T13:52:06.771Z,17.53
2022-12-11T13:54:37.504Z,17.97
2022-12-11T13:57:18.131Z,17.47
2022-12-11T13:59:51.346Z,18.07
2022-12-11T14:02:25.055Z,17.87
2022-12-11T14:04:58.194Z,18.27
2022-12-11T14:07:32.785Z,18.20
2022-12-11T14:10:04.505Z,17.93
2022-12-11T14:12:34.049Z,17.57
2022-12-11T14:15:05.693Z,18.50
2022-12-11T14:17:37.428Z,18.50
2022-12-11T14:20:18.954Z,17.93
2022-12-11T14:22:48.059Z,18.33
2022-12-11T14:25:26.291Z,16.87
2022-12-11T14:27:57.273Z,17.90
2022-12-11T14:30:29.145Z,17.67
2022-12-11T14:33:00.534Z,17.40
2022-12-11T14:35:38.622Z,17.63
2022-12-11T14:38:16.752Z,17.50
2022-12-11T14:40:51.065Z,17.20
2022-12-11T14:43:24.672Z,17.13
2022-12-11T14:45:59.233Z,17.03
2022-12-11T14:48:31.296Z,17.33
2022-12-11T14:51:04.890Z,16.33
2022-12-11T14:53:38.931Z,17.87
2022-12-11T14:56:10.540Z,17.63
2022-12-11T14:58:44.521Z,17.23
2022-12-11T15:01:25.095Z,18.13
2022-12-11T15:04:05.742Z,18.60
2022-12-11T15:06:43.925Z,18.83
2022-12-11T15:09:26.031Z,20.17
2022-12-11T15:11:58.415Z,20.27
2022-12-11T15:14:29.537Z,20.47
2022-12-11T15:16:58.962Z,19.87
2022-12-11T15:19:31.227Z,19.97
2022-12-11T15:22:05.874Z,20.17
2022-12-11T15:24:39.690Z,20.20
2022-12-11T15:27:26.869Z,19.83
2022-12-11T15:29:57.258Z,20.60
2022-12-11T15:32:26.935Z,19.27
2022-12-11T15:34:58.694Z,20.33
2022-12-11T15:37:31.905Z,19.47
2022-12-11T15:40:03.019Z,19.37
2022-12-11T15:42:35.222Z,20.27
2022-12-11T15:45:09.498Z,19.73
2022-12-11T15:47:39.175Z,20.20
2022-12-11T15:50:17.881Z,20.63
2022-12-11T15:52:49.832Z,20.47
2022-12-11T15:55:19.954Z,19.67
2022-12-11T15:57:52.329Z,18.80
2022-12-11T16:00:24.130Z,18.40
2022-12-11T16:02:53.858Z,18.20
2022-12-11T16:05:23.638Z,16.73
2022-12-11T16:07:54.905Z,16.80
2022-12-11T16:10:24.738Z,16.30
2022-12-11T16:12:56.644Z,17.03
2022-12-11T16:15:27.635Z,16.50
2022-12-11T16:18:04.862Z,15.17
2022-12-11T16:20:35.405Z,16.00
2022-12-11T16:23:06.477Z,15.87
2022-12-11T16:25:39.303Z,16.13
2022-12-11T16:28:10.331Z,16.60
2022-12-11T16:30:40.065Z,15.73
2022-12-11T16:33:13.449Z,16.13
2022-12-11T16:35:43.852Z,16.53
2022-12-11T16:38:16.298Z,16.37
2022-12-11T16:40:45.879Z,17.10
2022-12-11T16:43:15.410Z,17.20
2022-12-11T16:45:45.144Z,17.57
2022-12-11T16:48:14.550Z,16.87
2022-12-11T16:50:44.505Z,16.20
2022-12-11T16:53:17.537Z,17.53
2022-12-11T16:55:47.011Z,17.47
2022-12-11T16:58:20.182Z,16.87
2022-12-11T17:00:50.587Z,15.80
2022-12-11T17:03:20.593Z,16.17
2022-12-11T17:05:49.973Z,16.83
2022-12-11T17:08:20.575Z,17.47
2022-12-11T17:10:49.908Z,17.97
2022-12-11T17:13:19.977Z,16.60
2022-12-11T17:15:49.522Z,17.47
2022-12-11T17:18:21.162Z,17.80
2022-12-11T17:20:50.823Z,17.13
2022-12-11T17:23:21.433Z,17.50
2022-12-11T17:25:51.070Z,17.47
2022-12-11T17:28:20.695Z,18.23
2022-12-11T17:30:50.162Z,17.10
2022-12-11T17:33:19.888Z,17.33
2022-12-11T17:35:49.340Z,16.83
2022-12-11T17:38:18.883Z,16.90
2022-12-11T17:40:50.429Z,16.80
2022-12-11T17:43:19.924Z,17.37
2022-12-11T17:45:52.873Z,15.93
2022-12-11T17:48:23.136Z,16.50
2022-12-11T17:50:54.600Z,16.13
2022-12-11T17:53:24.880Z,22.20
2022-12-11T17:55:56.175Z,20.80
2022-12-11T17:58:25.597Z,19.20
2022-12-11T18:00:57.144Z,18.83
2022-12-11T18:03:27.540Z,17.80
2022-12-11T18:05:58.727Z,17.80
2022-12-11T18:08:30.199Z,17.90
2022-12-11T18:11:08.495Z,16.97
2022-12-11T18:13:39.394Z,17.17
2022-12-11T18:16:12.575Z,18.63
2022-12-11T18:18:42.261Z,19.40
2022-12-11T18:21:15.155Z,19.10
2022-12-11T18:23:44.606Z,19.53
2022-12-11T18:26:15.684Z,19.87
2022-12-11T18:28:45.785Z,19.33
2022-12-11T18:31:15.452Z,19.43
2022-12-11T18:33:45.917Z,19.37
2022-12-11T18:36:16.736Z,19.60
2022-12-11T18:38:47.232Z,19.97
2022-12-11T18:41:19.406Z,18.63
2022-12-11T18:43:48.804Z,19.27
2022-12-11T18:46:21.127Z,17.70
2022-12-11T18:48:50.833Z,17.37
2022-12-11T18:51:23.825Z,17.17
2022-12-11T18:53:53.471Z,17.97
2022-12-11T18:56:25.655Z,17.43
2022-12-11T18:58:55.089Z,17.87
2022-12-11T19:01:26.596Z,17.83
2022-12-11T19:04:02.669Z,17.73
2022-12-11T19:06:35.404Z,17.33
2022-12-11T19:09:09.034Z,17.57
2022-12-11T19:11:41.441Z,16.97
2022-12-11T19:14:11.601Z,16.97
2022-12-11T19:16:45.476Z,16.37
2022-12-11T19:19:16.941Z,16.57
2022-12-11T19:21:47.991Z,16.27
2022-12-11T19:24:19.537Z,18.23
2022-12-11T19:26:51.501Z,17.63
2022-12-11T19:29:23.046Z,19.37
2022-12-11T19:31:52.578Z,16.80
2022-12-11T19:34:22.553Z,18.07
2022-12-11T19:36:52.697Z,17.30
2022-12-11T19:39:22.116Z,16.80
2022-12-11T19:41:53.263Z,16.70
2022-12-11T19:44:22.753Z,17.77
2022-12-11T19:46:53.333Z,17.30
2022-12-11T19:49:22.670Z,17.03
2022-12-11T19:51:52.493Z,17.67
2022-12-11T19:54:21.565Z,18.23
2022-12-11T19:56:53.928Z,18.47
2022-12-11T19:59:23.405Z,17.90
2022-12-11T20:01:52.652Z,18.17
2022-12-11T20:04:21.890Z,19.23
2022-12-11T20:06:51.318Z,18.40
2022-12-11T20:09:20.342Z,18.60
2022-12-11T20:11:49.802Z,17.83
2022-12-11T20:14:24.325Z,18.17
2022-12-11T20:17:11.940Z,17.90
2022-12-11T20:19:42.839Z,19.43
2022-12-11T20:22:12.376Z,18.30
2022-12-11T20:24:41.747Z,18.10
2022-12-11T20:27:12.393Z,18.07
2022-12-11T20:29:42.813Z,18.07
2022-12-11T20:32:12.354Z,18.83
2022-12-11T20:34:41.814Z,21.23
2022-12-11T20:37:11.625Z,18.23
2022-12-11T20:39:40.966Z,19.00
2022-12-11T20:42:10.974Z,18.23
2022-12-11T20:44:42.796Z,18.97
2022-12-11T20:47:19.701Z,19.50
2022-12-11T20:49:49.695Z,18.10
2022-12-11T20:52:19.283Z,18.30
2022-12-11T20:54:48.288Z,18.97
2022-12-11T20:57:17.610Z,17.37
2022-12-11T20:59:46.715Z,17.67
2022-12-11T21:02:17.389Z,18.53
2022-12-11T21:04:46.509Z,18.67
2022-12-11T21:07:15.453Z,19.10
2022-12-11T21:09:44.475Z,20.53
2022-12-11T21:12:13.394Z,21.43
2022-12-11T21:14:42.295Z,20.53
2022-12-11T21:17:11.381Z,22.37
2022-12-11T21:19:42.943Z,20.23
2022-12-11T21:22:12.243Z,19.10
2022-12-11T21:24:41.686Z,18.30
2022-12-11T21:27:11.046Z,18.23
2022-12-11T21:29:40.342Z,18.33
2022-12-11T21:32:09.676Z,19.03
2022-12-11T21:34:38.939Z,19.00
2022-12-11T21:37:09.628Z,18.87
2022-12-11T21:39:39.639Z,18.77
2022-12-11T21:42:08.915Z,19.43
2022-12-11T21:45:37.203Z,18.97
2022-12-11T21:47:28.002Z,19.30
2022-12-11T21:49:57.046Z,19.37
2022-12-11T21:52:27.430Z,20.83
2022-12-11T21:54:56.632Z,19.20
2022-12-11T21:57:27.007Z,19.07
2022-12-11T21:59:56.418Z,19.43
2022-12-11T22:02:25.621Z,18.60
2022-12-11T22:04:54.587Z,18.40
2022-12-11T22:07:24.974Z,19.27
2022-12-11T22:09:55.504Z,18.80
2022-12-11T22:12:27.159Z,18.40
2022-12-11T22:14:56.510Z,20.07
2022-12-11T22:17:25.804Z,22.57
2022-12-11T22:19:54.742Z,24.00
2022-12-11T22:22:23.893Z,21.83
2022-12-11T22:24:52.788Z,19.30
2022-12-11T22:27:24.060Z,18.60
2022-12-11T22:29:53.553Z,19.00
2022-12-11T22:32:22.559Z,19.50
2022-12-11T22:34:51.466Z,18.83
2022-12-11T22:37:20.894Z,19.60
2022-12-11T22:39:50.110Z,19.43
2022-12-11T22:42:18.951Z,19.57
2022-12-11T22:44:49.338Z,19.80
2022-12-11T22:47:18.569Z,20.33
2022-12-11T22:49:47.691Z,19.13
2022-12-11T22:52:16.906Z,20.30
2022-12-11T22:54:46.523Z,19.90
2022-12-11T22:57:15.917Z,19.70
2022-12-11T22:59:45.089Z,19.47
2022-12-11T23:02:16.043Z,19.23
2022-12-11T23:04:45.006Z,18.67
2022-12-11T23:07:14.511Z,20.13
2022-12-11T23:09:43.785Z,20.40
2022-12-11T23:12:12.664Z,18.83
2022-12-11T23:14:41.706Z,19.00
2022-12-11T23:17:11.075Z,18.97
2022-12-11T23:19:41.447Z,19.63
2022-12-11T23:22:10.642Z,19.40
2022-12-11T23:24:39.724Z,19.63
2022-12-11T23:27:09.369Z,19.27
2022-12-11T23:29:39.973Z,19.20
2022-12-11T23:32:08.905Z,18.83
2022-12-11T23:34:38.166Z,19.60
2022-12-11T23:37:08.725Z,19.90
2022-12-11T23:39:37.824Z,20.20
2022-12-11T23:42:06.900Z,21.47
2022-12-11T23:44:36.455Z,20.80
2022-12-11T23:47:05.767Z,21.23
2022-12-11T23:49:34.876Z,21.73
2022-12-11T23:52:04.777Z,21.43
2022-12-11T23:54:35.182Z,20.83
2022-12-11T23:57:04.047Z,20.50
2022-12-11T23:59:33.172Z,19.93
